Time;durP1;ratioP1;P1;durP2;ratioP2;P2;SDS_P1;SDS_P2;PMS_P1;PMS_P2;Temp;Humidity;BMP_temperature;BMP_pressure;BME280_temperature;BME280_humidity;BME280_pressure;Samples;Min_cycle;Max_cycle;Signal;HPM_P1;HPM_P2
2022/02/25 00:00:20;;;;;;;6.50;2.50;;;;;;;;;;5032454;28;20226;-48
2022/02/25 00:02:45;;;;;;;7.83;2.20;;;7.40;99.90;;;;;;5034013;28;20175;-48
2022/02/25 00:05:11;;;;;;;2.93;1.57;;;7.70;99.90;;;;;;5033557;28;20204;-51
2022/02/25 00:07:37;;;;;;;3.60;1.73;;;;;;;;;;5013444;28;20195;-54
2022/02/25 00:10:03;;;;;;;3.00;1.43;;;6.80;99.90;;;;;;5014011;28;20200;-52
2022/02/25 00:12:29;;;;;;;3.07;1.43;;;6.70;99.90;;;;;;5012564;28;20176;-52
2022/02/25 00:14:55;;;;;;;3.40;1.30;;;;;;;;;;5012797;28;20287;-52
2022/02/25 00:17:20;;;;;;;1.47;1.07;;;6.50;99.90;;;;;;5013548;28;20180;-52
2022/02/25 00:19:46;;;;;;;1.83;0.80;;;6.40;99.90;;;;;;5013869;28;20250;-51
2022/02/25 00:22:12;;;;;;;0.80;0.80;;;;;;;;;;5012562;28;20271;-51
2022/02/25 00:24:37;;;;;;;1.10;0.70;;;6.50;99.90;;;;;;5013902;28;20283;-52
2022/02/25 00:27:03;;;;;;;0.57;0.53;;;6.70;99.90;;;;;;5013208;28;20173;-52
2022/02/25 00:29:28;;;;;;;1.67;0.80;;;6.60;99.90;;;;;;5013719;28;20208;-50
2022/02/25 00:31:54;;;;;;;0.70;0.60;;;6.10;99.90;;;;;;5013729;28;20207;-50
2022/02/25 00:34:20;;;;;;;1.90;0.70;;;6.50;99.90;;;;;;5013550;28;20184;-52
2022/02/25 00:36:45;;;;;;;0.60;0.60;;;6.10;99.90;;;;;;5013204;28;20653;-51
2022/02/25 00:39:11;;;;;;;0.80;0.70;;;6.00;99.90;;;;;;5013367;28;20191;-50
2022/02/25 00:41:36;;;;;;;0.60;0.60;;;6.10;99.90;;;;;;5013371;28;20179;-54
2022/02/25 00:44:02;;;;;;;0.60;0.60;;;6.60;99.90;;;;;;5013157;28;20270;-52
2022/02/25 00:46:28;;;;;;;1.00;0.37;;;6.20;99.90;;;;;;5013169;28;20805;-51
2022/02/25 00:48:53;;;;;;;0.70;0.60;;;6.80;99.90;;;;;;5013260;28;20172;-50
2022/02/25 00:51:19;;;;;;;0.40;0.40;;;6.30;99.90;;;;;;5013352;28;20169;-49
2022/02/25 00:53:45;;;;;;;0.50;0.50;;;6.60;99.90;;;;;;5013146;28;20279;-55
2022/02/25 00:56:10;;;;;;;1.63;0.60;;;6.60;99.90;;;;;;5012809;28;20171;-52
2022/02/25 00:58:36;;;;;;;0.37;0.33;;;6.50;99.90;;;;;;5012984;28;20255;-50
2022/02/25 01:01:01;;;;;;;0.90;0.50;;;5.80;99.90;;;;;;5012934;28;20212;-51
2022/02/25 01:03:27;;;;;;;0.90;0.60;;;6.20;99.90;;;;;;5012756;28;20195;-53
2022/02/25 01:05:53;;;;;;;0.83;0.63;;;;;;;;;;5012401;28;20180;-51
2022/02/25 01:08:18;;;;;;;0.77;0.50;;;6.10;99.90;;;;;;5012194;28;20196;-51
2022/02/25 01:10:44;;;;;;;0.40;0.40;;;5.80;99.90;;;;;;5012623;28;20207;-49
2022/02/25 01:13:10;;;;;;;0.50;0.50;;;6.10;99.90;;;;;;5012507;28;20178;-50
2022/02/25 01:15:35;;;;;;;0.40;0.40;;;6.00;99.90;;;;;;5011219;28;20183;-51
2022/02/25 01:18:01;;;;;;;1.07;0.80;;;;;;;;;;5011899;28;20708;-51
2022/02/25 01:20:27;;;;;;;0.60;0.40;;;6.10;99.90;;;;;;5011338;28;20219;-52
2022/02/25 01:22:53;;;;;;;1.20;0.40;;;5.60;99.90;;;;;;5011544;28;20184;-56
2022/02/25 01:25:19;;;;;;;0.67;0.40;;;6.00;99.90;;;;;;5011601;28;20232;-52
2022/02/25 01:27:45;;;;;;;0.87;0.50;;;5.90;99.90;;;;;;5012239;28;20793;-50
2022/02/25 01:30:11;;;;;;;1.63;0.50;;;5.80;99.90;;;;;;5011544;28;20204;-50
2022/02/25 01:32:38;;;;;;;0.60;0.50;;;5.60;99.90;;;;;;5011092;28;20255;-50
2022/02/25 01:35:04;;;;;;;1.07;0.50;;;5.50;99.90;;;;;;5011782;28;20215;-53
2022/02/25 01:37:30;;;;;;;0.40;0.40;;;5.20;99.90;;;;;;5012137;28;20567;-53
2022/02/25 01:39:56;;;;;;;0.63;0.57;;;5.00;99.90;;;;;;5011799;28;20204;-53
2022/02/25 01:42:23;;;;;;;0.33;0.33;;;5.00;99.90;;;;;;5011621;28;20176;-54
2022/02/25 01:44:48;;;;;;;0.30;0.30;;;4.80;99.90;;;;;;5012041;28;20270;-53
2022/02/25 01:47:14;;;;;;;0.40;0.40;;;4.60;99.90;;;;;;5009912;28;20172;-55
2022/02/25 01:49:41;;;;;;;0.80;0.50;;;4.50;99.90;;;;;;5011603;28;20218;-52
2022/02/25 01:52:12;;;;;;;0.50;0.50;;;4.40;99.90;;;;;;5011970;28;20176;-50
2022/02/25 01:54:38;;;;;;;0.90;0.40;;;4.30;99.90;;;;;;5012196;28;20199;-48
2022/02/25 01:57:05;;;;;;;0.90;0.60;;;4.30;99.90;;;;;;5011669;28;20172;-54
2022/02/25 01:59:32;;;;;;;0.40;0.40;;;4.60;99.90;;;;;;5012267;28;20254;-49
2022/02/25 02:01:58;;;;;;;0.53;0.40;;;4.40;99.90;;;;;;5010357;28;20168;-52
2022/02/25 02:04:24;;;;;;;0.40;0.40;;;4.40;99.90;;;;;;5011625;28;20239;-51
2022/02/25 02:06:51;;;;;;;0.30;0.30;;;4.40;99.90;;;;;;5010780;28;20568;-51
2022/02/25 02:09:17;;;;;;;0.50;0.40;;;4.30;99.90;;;;;;5010958;28;20578;-53
2022/02/25 02:11:45;;;;;;;1.30;0.50;;;4.30;99.90;;;;;;5010887;28;20177;-50
2022/02/25 02:14:17;;;;;;;1.70;0.40;;;4.30;99.90;;;;;;5011740;28;20216;-50
2022/02/25 02:16:47;;;;;;;0.50;0.50;;;4.10;99.90;;;;;;5011663;28;20647;-52
2022/02/25 02:19:14;;;;;;;0.50;0.50;;;4.10;99.90;;;;;;5010946;28;20343;-50
2022/02/25 02:21:42;;;;;;;0.53;0.50;;;4.10;99.90;;;;;;5011461;28;20207;-48
2022/02/25 02:24:07;;;;;;;0.83;0.60;;;4.20;99.90;;;;;;5010699;28;20277;-51
2022/02/25 02:26:33;;;;;;;0.50;0.50;;;4.30;99.90;;;;;;5011453;28;20204;-50
2022/02/25 02:28:59;;;;;;;0.80;0.80;;;;;;;;;;5012008;28;20549;-52
2022/02/25 02:31:26;;;;;;;0.70;0.47;;;4.20;99.90;;;;;;5012001;28;20191;-53
2022/02/25 02:33:52;;;;;;;0.60;0.60;;;4.20;99.90;;;;;;5011678;28;20189;-50
2022/02/25 02:36:17;;;;;;;0.80;0.80;;;;;;;;;;5011406;28;20172;-53
2022/02/25 02:38:44;;;;;;;0.53;0.53;;;4.20;99.90;;;;;;5011679;28;20529;-50
2022/02/25 02:41:10;;;;;;;0.40;0.40;;;4.10;99.90;;;;;;5011909;28;20173;-51
2022/02/25 02:43:36;;;;;;;1.97;0.60;;;3.90;99.90;;;;;;5012634;28;20278;-53
2022/02/25 02:46:03;;;;;;;1.03;0.50;;;4.00;99.90;;;;;;5011525;28;20180;-54
2022/02/25 02:48:29;;;;;;;0.80;0.50;;;4.00;99.90;;;;;;5011761;28;20176;-52
2022/02/25 02:50:54;;;;;;;0.67;0.50;;;4.00;99.90;;;;;;5011866;28;20187;-51
2022/02/25 02:53:20;;;;;;;0.43;0.43;;;3.90;99.90;;;;;;5011688;28;20711;-53
2022/02/25 02:55:46;;;;;;;1.43;0.50;;;3.60;99.90;;;;;;5011428;28;20180;-50
2022/02/25 02:58:12;;;;;;;0.50;0.50;;;3.70;99.90;;;;;;5011690;28;20183;-50
2022/02/25 03:00:39;;;;;;;1.80;0.53;;;3.60;99.90;;;;;;5011618;28;20208;-51
2022/02/25 03:03:06;;;;;;;0.53;0.43;;;3.90;99.90;;;;;;5011413;28;20187;-51
2022/02/25 03:05:31;;;;;;;0.50;0.50;;;3.60;99.90;;;;;;5011496;28;20249;-50
2022/02/25 03:07:57;;;;;;;1.37;0.60;;;3.70;99.90;;;;;;5011700;28;20200;-50
2022/02/25 03:10:23;;;;;;;0.70;0.60;;;3.60;99.90;;;;;;5011311;28;20230;-52
2022/02/25 03:12:48;;;;;;;1.17;0.60;;;3.50;99.90;;;;;;5010973;28;20549;-50
2022/02/25 03:15:14;;;;;;;0.30;0.30;;;3.50;99.90;;;;;;5011250;28;20777;-50
2022/02/25 03:17:41;;;;;;;1.40;0.60;;;3.50;99.90;;;;;;5011145;28;20530;-51
2022/02/25 03:20:09;;;;;;;0.60;0.60;;;3.60;99.90;;;;;;5011531;28;20219;-50
2022/02/25 03:22:34;;;;;;;0.80;0.67;;;3.60;99.90;;;;;;5011580;28;20251;-52
2022/02/25 03:25:01;;;;;;;1.40;0.60;;;3.60;99.90;;;;;;5011351;28;20224;-52
2022/02/25 03:27:28;;;;;;;1.67;0.83;;;3.60;99.90;;;;;;5011137;28;20209;-53
2022/02/25 03:29:54;;;;;;;2.30;1.00;;;3.60;99.90;;;;;;5011311;28;20173;-50
2022/02/25 03:32:21;;;;;;;0.50;0.50;;;3.60;99.90;;;;;;5011490;28;20549;-51
2022/02/25 03:34:48;;;;;;;1.07;0.53;;;3.60;99.90;;;;;;5011838;28;20275;-50
2022/02/25 03:37:13;;;;;;;1.27;0.60;;;3.70;99.90;;;;;;5014524;28;20184;-50
2022/02/25 03:39:39;;;;;;;0.60;0.60;;;3.70;99.90;;;;;;5013518;28;20735;-50
2022/02/25 03:42:05;;;;;;;0.70;0.70;;;3.60;99.90;;;;;;5014884;28;20204;-50
2022/02/25 03:44:31;;;;;;;0.50;0.50;;;3.70;99.90;;;;;;5014592;28;20756;-50
2022/02/25 03:46:56;;;;;;;0.83;0.57;;;3.70;99.90;;;;;;5014711;28;20256;-51
2022/02/25 03:49:22;;;;;;;1.33;0.80;;;3.70;99.90;;;;;;5014664;28;20177;-50
2022/02/25 03:51:47;;;;;;;0.73;0.40;;;3.70;99.90;;;;;;5014688;28;20180;-50
2022/02/25 03:54:13;;;;;;;1.07;0.70;;;3.70;99.90;;;;;;5014451;28;20208;-50
2022/02/25 03:56:39;;;;;;;1.33;0.67;;;3.70;99.90;;;;;;5014276;28;20276;-52
2022/02/25 03:59:05;;;;;;;2.00;0.90;;;;;;;;;;5014352;28;20195;-50
2022/02/25 04:01:30;;;;;;;1.00;0.70;;;3.60;99.90;;;;;;5014476;28;20730;-54
2022/02/25 04:03:57;;;;;;;1.93;1.03;;;3.60;99.90;;;;;;5014389;28;20193;-50
2022/02/25 04:06:23;;;;;;;2.13;0.90;;;3.60;99.90;;;;;;5014060;28;20169;-51
2022/02/25 04:08:49;;;;;;;2.30;0.87;;;3.60;99.90;;;;;;5014301;28;20168;-53
2022/02/25 04:11:15;;;;;;;1.63;1.00;;;;;;;;;;5014314;28;20206;-50
2022/02/25 04:13:41;;;;;;;0.80;0.80;;;3.50;99.90;;;;;;5013955;28;20192;-50
2022/02/25 04:16:07;;;;;;;1.60;0.90;;;3.50;99.90;;;;;;5013866;28;20597;-49
2022/02/25 04:18:33;;;;;;;1.33;0.87;;;3.50;99.90;;;;;;5014039;28;20204;-50
2022/02/25 04:20:59;;;;;;;1.77;1.00;;;3.50;99.90;;;;;;5014110;28;20200;-49
2022/02/25 04:23:25;;;;;;;1.07;1.00;;;3.60;99.90;;;;;;5016232;28;20196;-50
2022/02/25 04:25:50;;;;;;;1.63;1.00;;;3.70;99.90;;;;;;5033051;28;20746;-51
2022/02/25 04:28:16;;;;;;;1.20;1.10;;;3.70;99.90;;;;;;5033599;28;20661;-52
2022/02/25 04:30:43;;;;;;;1.37;1.00;;;3.60;99.90;;;;;;5033725;28;20258;-50
2022/02/25 04:33:09;;;;;;;1.00;1.00;;;3.60;99.90;;;;;;5033518;28;20251;-50
2022/02/25 04:35:34;;;;;;;3.27;1.23;;;3.60;99.90;;;;;;5033108;28;20215;-50
2022/02/25 04:38:01;;;;;;;1.00;0.90;;;3.50;99.90;;;;;;5033459;28;20171;-51
2022/02/25 04:40:27;;;;;;;0.97;0.97;;;3.50;99.90;;;;;;5033277;28;20254;-50
2022/02/25 04:42:53;;;;;;;1.63;1.23;;;3.50;99.90;;;;;;5033445;28;20254;-50
2022/02/25 04:45:18;;;;;;;1.80;1.00;;;3.50;99.90;;;;;;5033054;28;20242;-50
2022/02/25 04:47:44;;;;;;;1.17;1.07;;;3.50;99.90;;;;;;5032658;28;20168;-50
2022/02/25 04:50:12;;;;;;;2.23;1.07;;;3.50;99.90;;;;;;5033015;28;20195;-51
2022/02/25 04:52:42;;;;;;;2.03;1.20;;;3.50;99.90;;;;;;5033087;28;20879;-52
2022/02/25 04:55:10;;;;;;;1.23;1.07;;;3.40;99.90;;;;;;5032915;28;20200;-54
2022/02/25 04:57:35;;;;;;;1.00;1.00;;;3.40;99.90;;;;;;5032821;28;20167;-50
2022/02/25 05:00:01;;;;;;;1.17;1.00;;;3.30;99.90;;;;;;5032996;28;20227;-50
2022/02/25 05:02:27;;;;;;;4.37;1.23;;;3.30;99.90;;;;;;5032971;28;20625;-50
2022/02/25 05:04:52;;;;;;;2.43;1.10;;;3.20;99.90;;;;;;5031488;28;20199;-50
2022/02/25 05:07:18;;;;;;;1.77;1.20;;;3.20;99.90;;;;;;5032510;28;20195;-53
2022/02/25 05:09:43;;;;;;;1.57;1.10;;;3.00;99.90;;;;;;5031475;28;20182;-54
2022/02/25 05:12:09;;;;;;;3.20;1.70;;;3.00;99.90;;;;;;5032883;28;20172;-55
2022/02/25 05:20:16;;;;;;;1.50;1.30;;;3.10;99.90;;;;;;5032736;28;20198;-50
2022/02/25 05:22:42;;;;;;;2.10;1.20;;;3.10;99.90;;;;;;5032583;28;20279;-52
2022/02/25 05:25:09;;;;;;;2.03;1.13;;;3.20;99.90;;;;;;5032321;28;20235;-52
2022/02/25 05:27:34;;;;;;;2.13;1.40;;;3.40;99.90;;;;;;5032126;28;20176;-53
2022/02/25 05:30:00;;;;;;;1.50;1.40;;;3.60;99.90;;;;;;5032006;28;20248;-52
2022/02/25 05:32:26;;;;;;;1.40;1.30;;;3.80;99.90;;;;;;5032425;28;20183;-51
2022/02/25 05:34:51;;;;;;;1.70;1.37;;;3.90;99.90;;;;;;5032140;28;20191;-51
2022/02/25 05:37:17;;;;;;;2.43;1.53;;;3.90;99.90;;;;;;5031603;28;20164;-53
2022/02/25 05:39:42;;;;;;;1.83;1.37;;;4.00;99.90;;;;;;5032169;28;20202;-49
2022/02/25 05:42:08;;;;;;;1.23;1.10;;;3.90;99.90;;;;;;5032415;28;20179;-50
2022/02/25 05:44:34;;;;;;;1.93;1.30;;;3.80;99.90;;;;;;5031564;28;20210;-50
2022/02/25 05:46:59;;;;;;;1.57;1.47;;;3.70;99.90;;;;;;5031773;28;20168;-51
2022/02/25 05:49:25;;;;;;;2.73;1.60;;;3.50;99.90;;;;;;5031095;28;20180;-50
2022/02/25 05:51:51;;;;;;;1.40;1.30;;;3.40;99.90;;;;;;5032186;28;20533;-50
2022/02/25 05:54:16;;;;;;;3.40;1.57;;;3.30;99.90;;;;;;5032007;28;20203;-53
2022/02/25 05:56:42;;;;;;;2.13;1.80;;;3.20;99.90;;;;;;5030365;28;20179;-50
2022/02/25 05:59:08;;;;;;;1.70;1.60;;;3.00;99.90;;;;;;5031307;28;20180;-50
2022/02/25 06:01:34;;;;;;;2.10;1.60;;;3.00;99.90;;;;;;5031798;28;20176;-51
2022/02/25 06:03:59;;;;;;;2.20;1.70;;;3.00;99.90;;;;;;5028071;28;20737;-48
2022/02/25 06:06:25;;;;;;;2.93;2.00;;;3.00;99.90;;;;;;5022568;28;20548;-50
2022/02/25 06:08:51;;;;;;;1.80;1.70;;;3.00;99.90;;;;;;5031714;28;20176;-53
2022/02/25 06:11:16;;;;;;;2.37;1.90;;;3.00;99.90;;;;;;5014324;28;20263;-53
2022/02/25 06:13:42;;;;;;;2.20;1.97;;;3.00;99.90;;;;;;5011924;28;20219;-47
2022/02/25 06:16:07;;;;;;;2.67;1.57;;;2.90;99.90;;;;;;5011706;28;20172;-51
2022/02/25 06:18:34;;;;;;;3.43;1.90;;;3.00;99.90;;;;;;5011686;28;20172;-55
2022/02/25 06:21:00;;;;;;;1.70;1.60;;;3.10;99.90;;;;;;5011470;28;20208;-50
2022/02/25 06:23:25;;;;;;;2.50;1.80;;;3.20;99.90;;;;;;5028643;28;20202;-52
2022/02/25 06:25:54;;;;;;;1.80;1.70;;;3.20;99.90;;;;;;5031113;28;20179;-51
2022/02/25 06:28:19;;;;;;;2.67;1.60;;;3.20;99.90;;;;;;5031560;28;20178;-52
2022/02/25 06:30:45;;;;;;;2.07;1.80;;;3.10;99.90;;;;;;5031649;28;20184;-51
2022/02/25 06:33:10;;;;;;;2.80;1.70;;;3.00;99.90;;;;;;5030938;28;20183;-53
2022/02/25 06:35:36;;;;;;;3.10;1.90;;;3.00;99.90;;;;;;5031181;28;20199;-53
2022/02/25 06:38:02;;;;;;;2.93;2.10;;;3.00;99.90;;;;;;5029996;28;20179;-52
2022/02/25 06:40:28;;;;;;;2.20;1.87;;;3.00;99.90;;;;;;5031212;28;20211;-50
2022/02/25 06:42:53;;;;;;;2.40;2.20;;;3.00;99.90;;;;;;5031476;28;20176;-52
2022/02/25 06:45:20;;;;;;;2.47;1.90;;;3.10;99.90;;;;;;5031271;28;20285;-53
2022/02/25 06:47:47;;;;;;;2.47;2.10;;;3.20;99.90;;;;;;5040792;28;20513;-48
2022/02/25 06:50:14;;;;;;;2.20;2.00;;;3.30;99.90;;;;;;5033563;28;20175;-52
2022/02/25 06:52:40;;;;;;;2.20;2.00;;;3.20;99.90;;;;;;5031417;28;20279;-51
2022/02/25 06:55:06;;;;;;;3.73;2.10;;;3.10;99.90;;;;;;5031106;28;20192;-51
2022/02/25 06:57:32;;;;;;;2.53;1.60;;;3.10;99.90;;;;;;5031018;28;20211;-51
2022/02/25 06:59:58;;;;;;;5.03;1.80;;;3.20;99.90;;;;;;5013929;28;20228;-50
2022/02/25 07:02:23;;;;;;;1.80;1.70;;;3.20;99.90;;;;;;5011064;28;20600;-52
2022/02/25 07:04:49;;;;;;;1.83;1.73;;;3.20;99.90;;;;;;5031281;28;20604;-49
2022/02/25 07:07:14;;;;;;;2.20;2.00;;;3.30;99.90;;;;;;5031088;28;20639;-52
2022/02/25 07:09:40;;;;;;;3.10;2.10;;;3.30;99.90;;;;;;5027247;28;20187;-54
2022/02/25 07:12:06;;;;;;;3.37;2.10;;;3.20;99.90;;;;;;5034960;28;20242;-50
2022/02/25 07:14:35;;;;;;;2.50;2.10;;;3.30;99.90;;;;;;5033760;28;20683;-49
2022/02/25 07:17:01;;;;;;;2.00;1.80;;;3.40;99.90;;;;;;5034908;28;20683;-54
2022/02/25 07:19:27;;;;;;;2.67;1.83;;;3.50;99.90;;;;;;5034632;28;20196;-49
2022/02/25 07:21:52;;;;;;;2.00;1.80;;;3.40;99.90;;;;;;5035060;28;20179;-50
2022/02/25 07:24:18;;;;;;;2.43;2.10;;;3.40;99.90;;;;;;5034770;28;20231;-49
2022/02/25 07:26:45;;;;;;;1.80;1.70;;;3.50;99.90;;;;;;5034347;28;20318;-52
2022/02/25 07:29:11;;;;;;;2.90;2.10;;;3.40;99.90;;;;;;5034796;28;20206;-52
2022/02/25 07:31:38;;;;;;;2.40;2.03;;;3.40;99.90;;;;;;5033528;28;20222;-50
2022/02/25 07:34:06;;;;;;;4.37;2.20;;;3.50;99.90;;;;;;5034720;28;20279;-53
2022/02/25 07:36:32;;;;;;;2.50;2.10;;;3.60;99.90;;;;;;5034511;28;20297;-50
2022/02/25 07:38:58;;;;;;;4.53;1.80;;;3.50;99.90;;;;;;5034573;28;20258;-52
2022/02/25 07:41:24;;;;;;;2.73;1.90;;;3.60;99.90;;;;;;5033516;28;20255;-50
2022/02/25 07:43:49;;;;;;;2.27;1.93;;;3.60;99.90;;;;;;5034488;28;20684;-50
2022/02/25 07:46:15;;;;;;;2.87;2.13;;;3.70;99.90;;;;;;5034349;28;20172;-51
2022/02/25 07:48:41;;;;;;;3.37;1.53;;;3.90;99.90;;;;;;5034557;28;20671;-50
2022/02/25 07:51:07;;;;;;;1.80;1.67;;;3.90;99.90;;;;;;5034652;28;20230;-52
2022/02/25 07:53:34;;;;;;;3.50;1.87;;;3.90;99.90;;;;;;5034403;28;20203;-48
2022/02/25 07:56:00;;;;;;;1.83;1.47;;;3.90;99.90;;;;;;5034004;28;20226;-50
2022/02/25 07:58:25;;;;;;;2.00;1.80;;;3.80;99.90;;;;;;5034175;28;20180;-49
2022/02/25 08:00:51;;;;;;;1.63;1.53;;;3.80;99.90;;;;;;5034195;28;20639;-50
2022/02/25 08:03:16;;;;;;;2.30;1.70;;;4.00;99.90;;;;;;5034176;28;20207;-49
2022/02/25 08:05:42;;;;;;;3.27;1.87;;;4.00;99.90;;;;;;5033964;28;20579;-49
2022/02/25 08:08:08;;;;;;;3.03;1.57;;;4.10;99.90;;;;;;5034033;28;20662;-55
2022/02/25 08:10:35;;;;;;;1.63;1.47;;;4.20;99.90;;;;;;5033931;28;20179;-48
2022/02/25 08:13:03;;;;;;;2.60;1.47;;;4.10;99.90;;;;;;5033897;28;20203;-49
2022/02/25 08:15:28;;;;;;;4.73;1.73;;;4.10;99.90;;;;;;5034014;28;20229;-52
2022/02/25 08:17:54;;;;;;;2.20;1.50;;;4.40;99.90;;;;;;5033947;28;20621;-52
2022/02/25 08:20:20;;;;;;;4.57;1.70;;;4.70;99.90;;;;;;5033480;28;20287;-51
2022/02/25 08:22:45;;;;;;;2.87;1.63;;;4.80;99.90;;;;;;5033614;28;20176;-53
2022/02/25 08:25:11;;;;;;;1.43;1.30;;;5.00;99.90;;;;;;5033642;28;20199;-54
2022/02/25 08:27:37;;;;;;;2.50;1.60;;;5.40;99.90;;;;;;5017935;28;20177;-52
2022/02/25 08:30:08;;;;;;;1.20;1.00;;;5.70;99.90;;;;;;5013823;28;20674;-50
2022/02/25 08:32:33;;;;;;;2.07;1.40;;;5.90;99.90;;;;;;5013838;28;20176;-54
2022/02/25 08:34:59;;;;;;;1.80;1.20;;;6.20;99.90;;;;;;5013758;28;20561;-48
2022/02/25 08:37:25;;;;;;;1.33;0.93;;;6.60;99.90;;;;;;5013406;28;20541;-47
2022/02/25 08:39:50;;;;;;;2.03;1.20;;;6.80;99.90;;;;;;5013560;28;20201;-50
2022/02/25 08:42:16;;;;;;;2.37;1.30;;;6.90;99.90;;;;;;5013685;28;20511;-50
2022/02/25 08:44:42;;;;;;;2.90;1.20;;;7.30;99.90;;;;;;5013102;28;20208;-52
2022/02/25 08:47:08;;;;;;;2.33;1.20;;;7.60;99.90;;;;;;5013366;28;20176;-48
2022/02/25 08:49:34;;;;;;;2.17;1.00;;;7.90;99.20;;;;;;5014659;28;20181;-49
2022/02/25 08:52:00;;;;;;;1.00;1.00;;;8.10;98.60;;;;;;5013294;28;20185;-47
2022/02/25 08:54:26;;;;;;;1.93;1.20;;;8.30;98.30;;;;;;5019547;28;20200;-49
2022/02/25 08:56:52;;;;;;;1.27;1.00;;;8.60;98.90;;;;;;5030638;28;20267;-51
2022/02/25 08:59:17;;;;;;;1.33;0.90;;;9.50;98.50;;;;;;5031483;28;20286;-50
2022/02/25 09:01:43;;;;;;;3.03;1.40;;;10.30;96.80;;;;;;5013150;28;20207;-50
2022/02/25 09:04:08;;;;;;;2.03;1.17;;;10.50;96.60;;;;;;5013182;28;20199;-51
2022/02/25 09:06:36;;;;;;;2.53;1.10;;;11.20;95.90;;;;;;5012682;28;20661;-54
2022/02/25 09:09:03;;;;;;;3.90;1.23;;;11.70;95.50;;;;;;5013073;28;20675;-54
2022/02/25 09:11:28;;;;;;;1.20;1.00;;;12.10;92.70;;;;;;5013815;28;20232;-51
2022/02/25 09:13:54;;;;;;;1.57;1.00;;;12.60;91.90;;;;;;5025154;28;20199;-54
2022/02/25 09:16:19;;;;;;;5.00;1.80;;;12.80;93.10;;;;;;5024534;28;20171;-51
2022/02/25 09:18:45;;;;;;;2.57;0.97;;;12.90;88.50;;;;;;5027838;28;20217;-51
2022/02/25 09:21:11;;;;;;;3.40;1.10;;;12.20;90.40;;;;;;5029947;28;20211;-52
2022/02/25 09:23:37;;;;;;;2.17;1.00;;;12.90;90.10;;;;;;5032340;28;20667;-51
2022/02/25 09:26:03;;;;;;;4.20;0.90;;;13.30;88.90;;;;;;5032043;28;20174;-53
2022/02/25 09:28:28;;;;;;;1.73;1.00;;;13.70;86.20;;;;;;5032298;28;20179;-52
2022/02/25 09:30:54;;;;;;;2.77;0.87;;;14.20;85.40;;;;;;5026310;28;20255;-51
2022/02/25 09:33:20;;;;;;;10.50;1.97;;;15.40;84.20;;;;;;5031050;28;20207;-50
2022/02/25 09:35:46;;;;;;;2.03;1.10;;;15.50;81.60;;;;;;5032091;28;20183;-52
2022/02/25 09:38:11;;;;;;;1.37;0.80;;;15.20;83.70;;;;;;5032255;28;20173;-57
2022/02/25 09:40:37;;;;;;;3.00;0.90;;;16.30;78.80;;;;;;5031882;28;20239;-52
2022/02/25 09:43:04;;;;;;;3.67;1.30;;;17.50;71.00;;;;;;5032363;28;20184;-54
2022/02/25 09:45:30;;;;;;;1.60;1.03;;;18.00;72.00;;;;;;5031936;28;20213;-55
2022/02/25 09:47:55;;;;;;;2.47;1.17;;;15.30;69.70;;;;;;5030514;28;20795;-52
2022/02/25 09:50:23;;;;;;;3.70;1.00;;;13.30;78.40;;;;;;5023794;28;20176;-57
2022/02/25 09:52:50;;;;;;;1.50;1.03;;;12.70;75.90;;;;;;5032208;28;20180;-51
2022/02/25 09:55:27;;;;;;;1.50;0.90;;;13.70;81.10;;;;;;5031750;28;20253;-52
2022/02/25 09:57:54;;;;;;;3.27;0.87;;;11.60;77.10;;;;;;5032018;28;20177;-53
2022/02/25 10:00:20;;;;;;;1.30;1.00;;;11.90;78.90;;;;;;5031965;28;20211;-50
2022/02/25 10:02:48;;;;;;;2.00;1.00;;;11.00;78.30;;;;;;5032049;28;20656;-50
2022/02/25 10:05:23;;;;;;;1.80;1.00;;;11.70;83.80;;;;;;5031660;28;20214;-52
2022/02/25 10:07:49;;;;;;;1.60;0.80;;;10.80;79.70;;;;;;5031558;28;20237;-51
2022/02/25 10:10:17;;;;;;;1.93;0.90;;;10.50;78.70;;;;;;5031838;28;20302;-55
2022/02/25 10:12:47;;;;;;;1.93;1.00;;;10.10;80.30;;;;;;5031617;28;20306;-53
2022/02/25 10:15:14;;;;;;;3.30;0.93;;;11.60;78.90;;;;;;5031798;28;20576;-50
2022/02/25 10:17:40;;;;;;;2.83;0.83;;;12.80;80.20;;;;;;5031359;28;20183;-55
2022/02/25 10:20:07;;;;;;;2.23;1.13;;;14.40;73.90;;;;;;5031561;28;20676;-53
2022/02/25 10:22:36;;;;;;;2.30;0.70;;;15.20;70.50;;;;;;5026979;28;20242;-53
2022/02/25 10:25:06;;;;;;;1.70;0.97;;;15.50;70.10;;;;;;5031471;28;20199;-56
2022/02/25 10:27:34;;;;;;;2.23;1.17;;;15.20;66.30;;;;;;5031290;28;20176;-50
2022/02/25 10:30:07;;;;;;;3.03;1.43;;;15.10;68.90;;;;;;5031821;28;20180;-52
2022/02/25 10:32:35;;;;;;;2.37;0.80;;;15.30;68.00;;;;;;5031644;28;20168;-55
2022/02/25 10:35:22;;;;;;;2.13;0.90;;;16.70;72.30;;;;;;5031523;28;20207;-55
2022/02/25 10:37:54;;;;;;;1.93;0.90;;;16.00;64.40;;;;;;5031339;28;20172;-55
2022/02/25 10:40:20;;;;;;;3.43;0.90;;;16.80;65.20;;;;;;5031323;28;20196;-52
2022/02/25 10:42:46;;;;;;;1.73;0.80;;;17.30;66.80;;;;;;5031643;28;20168;-55
2022/02/25 10:45:11;;;;;;;1.80;1.17;;;18.30;65.50;;;;;;5033863;28;20203;-52
2022/02/25 10:47:43;;;;;;;1.80;1.10;;;17.80;59.10;;;;;;5035158;28;20225;-51
2022/02/25 10:50:17;;;;;;;2.43;1.00;;;16.50;61.90;;;;;;5035493;28;20661;-53
2022/02/25 10:52:45;;;;;;;2.43;1.13;;;14.90;60.40;;;;;;5035093;28;20208;-52
2022/02/25 10:55:32;;;;;;;2.57;1.10;;;14.00;68.60;;;;;;5035232;28;20704;-49
2022/02/25 10:57:58;;;;;;;2.30;1.03;;;16.20;64.80;;;;;;5035375;28;20160;-52
2022/02/25 11:00:24;;;;;;;2.53;1.05;;;18.50;60.80;;;;;;5035143;28;20196;-51
2022/02/25 11:02:52;;;;;;;2.50;1.17;;;19.90;54.80;;;;;;5032632;28;20199;-50
2022/02/25 11:05:24;;;;;;;1.97;0.93;;;18.10;55.30;;;;;;5025338;28;20569;-52
2022/02/25 11:07:55;;;;;;;2.20;0.97;;;18.10;60.80;;;;;;5026249;28;20174;-49
2022/02/25 11:10:23;;;;;;;2.53;0.97;;;16.20;55.90;;;;;;5033132;28;20180;-54
2022/02/25 11:12:50;;;;;;;4.53;1.40;;;15.50;57.20;;;;;;5035253;28;20179;-54
2022/02/25 11:15:22;;;;;;;2.53;1.13;;;16.00;56.70;;;;;;5027317;28;20215;-52
2022/02/25 11:17:48;;;;;;;3.60;0.97;;;16.00;56.90;;;;;;5034676;28;20180;-56
2022/02/25 11:20:18;;;;;;;3.60;0.90;;;16.80;59.60;;;;;;5034678;28;20202;-54
2022/02/25 11:22:44;;;;;;;3.43;1.13;;;17.50;56.30;;;;;;5031557;28;20529;-58
2022/02/25 11:25:14;;;;;;;3.13;0.77;;;15.80;53.70;;;;;;5034644;28;20331;-53
2022/02/25 11:27:41;;;;;;;2.10;0.87;;;11.90;55.80;;;;;;5034589;28;20174;-53
2022/02/25 11:30:08;;;;;;;2.43;0.90;;;10.50;62.20;;;;;;5034892;28;20177;-50
2022/02/25 11:32:51;;;;;;;3.80;0.87;;;10.60;63.90;;;;;;5034679;28;20168;-51
2022/02/25 11:35:19;;;;;;;3.07;1.13;;;9.90;66.40;;;;;;5034663;28;20242;-51
2022/02/25 11:37:50;;;;;;;2.10;1.07;;;9.40;68.90;;;;;;5034360;28;20178;-51
2022/02/25 11:40:17;;;;;;;3.87;1.80;;;11.10;67.00;;;;;;5031879;28;20208;-50
2022/02/25 11:42:47;;;;;;;4.10;0.80;;;12.00;65.80;;;;;;5034505;28;20202;-51
2022/02/25 11:45:24;;;;;;;2.80;1.10;;;12.00;64.00;;;;;;5034350;28;20258;-51
2022/02/25 11:47:52;;;;;;;2.47;1.00;;;11.00;62.90;;;;;;5034065;28;20619;-52
2022/02/25 11:50:32;;;;;;;3.57;1.27;;;9.60;66.30;;;;;;5014567;28;20179;-53
2022/02/25 11:53:16;;;;;;;5.00;1.67;;;8.50;67.70;;;;;;5014678;28;20172;-52
2022/02/25 11:55:41;;;;;;;25.43;15.33;;;8.00;71.80;;;;;;5013068;28;20165;-52
2022/02/25 11:58:55;;;;;;;33.53;19.60;;;7.60;74.60;;;;;;5014337;28;20256;-51
2022/02/25 12:01:22;;;;;;;6.97;3.60;;;9.00;74.80;;;;;;4953505;29;20745;-53
2022/02/25 12:04:09;;;;;;;2.63;1.40;;;10.30;69.20;;;;;;4953790;28;20269;-54
2022/02/25 12:07:02;;;;;;;3.33;1.27;;;11.20;71.10;;;;;;4953268;29;20197;-53
2022/02/25 12:09:54;;;;;;;1.63;1.03;;;12.50;67.00;;;;;;4953688;29;20171;-54
2022/02/25 12:12:22;;;;;;;2.60;1.20;;;14.60;68.00;;;;;;4950839;29;20188;-54
2022/02/25 12:15:11;;;;;;;1.90;0.97;;;16.90;63.90;;;;;;4962502;28;20234;-54
2022/02/25 12:17:50;;;;;;;2.47;1.00;;;17.30;55.70;;;;;;4953168;29;20191;-57
2022/02/25 12:20:34;;;;;;;1.63;0.80;;;15.20;54.00;;;;;;4953499;29;20274;-54
2022/02/25 12:23:03;;;;;;;1.50;0.87;;;;;;;;;;4953136;28;20170;-56
2022/02/25 12:25:43;;;;;;;0.93;0.73;;;13.20;58.30;;;;;;4953135;29;20182;-57
2022/02/25 12:28:27;;;;;;;1.37;0.70;;;12.40;58.70;;;;;;4953344;29;20624;-51
2022/02/25 12:31:03;;;;;;;3.20;0.90;;;11.40;60.50;;;;;;4953279;29;20254;-55
2022/02/25 12:33:34;;;;;;;3.07;1.10;;;10.00;62.70;;;;;;4952956;28;20226;-50
2022/02/25 12:35:59;;;;;;;3.53;1.23;;;8.80;67.60;;;;;;4953001;29;20716;-53
2022/02/25 12:38:27;;;;;;;3.53;1.13;;;8.00;71.90;;;;;;5000046;28;20268;-56
2022/02/25 12:41:06;;;;;;;2.43;1.10;;;8.20;72.90;;;;;;5028805;28;20642;-54
2022/02/25 12:43:32;;;;;;;2.77;1.00;;;9.50;72.60;;;;;;5013515;28;20236;-53
2022/02/25 12:45:58;;;;;;;2.57;0.90;;;9.60;71.90;;;;;;5013216;28;20248;-53
2022/02/25 12:48:25;;;;;;;2.77;1.13;;;9.20;75.40;;;;;;5018055;28;20214;-51
2022/02/25 12:50:51;;;;;;;4.77;1.20;;;8.70;75.80;;;;;;5033346;28;20518;-51
2022/02/25 12:53:16;;;;;;;3.97;1.13;;;7.70;79.70;;;;;;5033278;28;20179;-52
2022/02/25 12:55:56;;;;;;;2.40;0.93;;;7.80;80.40;;;;;;5032847;28;20588;-53
2022/02/25 12:58:35;;;;;;;1.70;0.70;;;7.20;84.30;;;;;;5033117;28;20171;-51
2022/02/25 13:01:01;;;;;;;1.67;0.67;;;6.90;85.90;;;;;;5033049;28;20225;-55
2022/02/25 13:03:27;;;;;;;1.23;0.73;;;6.80;90.10;;;;;;5032980;28;20692;-53